Csl Melbourne — 8PWP — position and weather

sailwx.info

Track history (hours):
 
Tides and Currents Weather Stations Pressure Air Temp Water Temp Dewpoint Dewpoint Depression Visibility Wind Speed Wind Dir Waves Ship Positions

Csl Melbourne

Last reported at 2014-Aug-03 11:33 UTC. Time now 2014-Aug-21 00:27 UTC.
Position S 27°19' E 153°40'.
Warning: this ship's position is 17 days out of date.

Length 187 m; draft 9.2 m.

Type: Cargo ship. MMSI: 314317000.

Date/timePositionNaut miles runAvg speedWind from/ knotsBaromVisibWave heightAir tempDewpointWater temp
2014-Aug-03 11:33S 27°19' E 153°40'1313.5
2014-Aug-03 10:33S 27°33' E 153°41'1313.5
2014-Aug-03 09:33S 27°46' E 153°42'1413.5
2014-Aug-03 08:33S 27°60' E 153°43'1413.9
2014-Aug-03 07:33S 28°14' E 153°44'24313.4
2014-Aug-02 13:26S 32°12' E 152°45'1213.9
2014-Aug-02 12:32S 32°24' E 152°41'1313.4
2014-Aug-02 11:34S 32°36' E 152°37'1413.5
2014-Aug-02 10:33S 32°48' E 152°29'1413.9
2014-Aug-02 09:34S 32°59' E 152°20'1413.7
2014-Aug-02 08:33S 33°11' E 152°11'1313.3
2014-Aug-02 07:34S 33°22' E 152°02'1313.0
2014-Aug-02 06:33S 33°33' E 151°53'23213.6
2014-Aug-01 13:33S 37°12' E 150°19'3913.1
2014-Aug-01 10:33S 37°47' E 149°59'1513.8
2014-Aug-01 09:27S 37°57' E 149°43'11812.9
2014-Aug-01 00:20S 38°58' E 147°35'1113.6
2014-Jul-31 23:33S 39°02' E 147°23'1413.7
2014-Jul-31 22:33S 39°07' E 147°06'1413.8
2014-Jul-31 21:33S 39°12' E 146°49'1413.7
2014-Jul-31 20:33S 39°17' E 146°33'1413.8
2014-Jul-31 19:33S 39°17' E 146°15'1313.4
2014-Jul-31 18:33S 39°17' E 145°58'1513.3
2014-Jul-31 17:24S 39°17' E 145°38'14613.0
2014-Jul-31 06:08S 38°55' E 142°32'813.5
2014-Jul-31 05:32S 38°53' E 142°22'1413.7
2014-Jul-31 04:33S 38°48' E 142°05'1413.7
2014-Jul-31 03:33S 38°44' E 141°49'1413.5
2014-Jul-31 02:33S 38°39' E 141°32'1313.4
2014-Jul-31 01:33S 38°33' E 141°17'1513.5
2014-Jul-31 00:27S 38°25' E 141°01'1213.5
2014-Jul-30 23:33S 38°19' E 140°48'1413.6
2014-Jul-30 22:33S 38°12' E 140°33'  
Track history (hours):
 
Tides and Currents Weather Stations Pressure Air Temp Water Temp Dewpoint Dewpoint Depression Visibility Wind Speed Wind Dir Waves Ship Positions

Csl Melbourne

Last reported at 2014-Aug-03 11:33 UTC. Time now 2014-Aug-21 00:27 UTC.
Position S 27°19' E 153°40'.
Warning: this ship's position is 17 days out of date.

Length 187 m; draft 9.2 m.

Type: Cargo ship. MMSI: 314317000.

Date/timePositionNaut miles runAvg speedWind from/ knotsBaromVisibWave heightAir tempDewpointWater temp
2014-Aug-03 11:33S 27°19' E 153°40'1313.5
2014-Aug-03 10:33S 27°33' E 153°41'1313.5
2014-Aug-03 09:33S 27°46' E 153°42'1413.5
2014-Aug-03 08:33S 27°60' E 153°43'1413.9
2014-Aug-03 07:33S 28°14' E 153°44'24313.4
2014-Aug-02 13:26S 32°12' E 152°45'1213.9
2014-Aug-02 12:32S 32°24' E 152°41'1313.4
2014-Aug-02 11:34S 32°36' E 152°37'1413.5
2014-Aug-02 10:33S 32°48' E 152°29'1413.9
2014-Aug-02 09:34S 32°59' E 152°20'1413.7
2014-Aug-02 08:33S 33°11' E 152°11'1313.3
2014-Aug-02 07:34S 33°22' E 152°02'1313.0
2014-Aug-02 06:33S 33°33' E 151°53'23213.6
2014-Aug-01 13:33S 37°12' E 150°19'3913.1
2014-Aug-01 10:33S 37°47' E 149°59'1513.8
2014-Aug-01 09:27S 37°57' E 149°43'11812.9
2014-Aug-01 00:20S 38°58' E 147°35'1113.6
2014-Jul-31 23:33S 39°02' E 147°23'1413.7
2014-Jul-31 22:33S 39°07' E 147°06'1413.8
2014-Jul-31 21:33S 39°12' E 146°49'1413.7
2014-Jul-31 20:33S 39°17' E 146°33'1413.8
2014-Jul-31 19:33S 39°17' E 146°15'1313.4
2014-Jul-31 18:33S 39°17' E 145°58'1513.3
2014-Jul-31 17:24S 39°17' E 145°38'14613.0
2014-Jul-31 06:08S 38°55' E 142°32'813.5
2014-Jul-31 05:32S 38°53' E 142°22'1413.7
2014-Jul-31 04:33S 38°48' E 142°05'1413.7
2014-Jul-31 03:33S 38°44' E 141°49'1413.5
2014-Jul-31 02:33S 38°39' E 141°32'1313.4
2014-Jul-31 01:33S 38°33' E 141°17'1513.5
2014-Jul-31 00:27S 38°25' E 141°01'1213.5
2014-Jul-30 23:33S 38°19' E 140°48'1413.6
2014-Jul-30 22:33S 38°12' E 140°33'  

Dump ship's entire track history